sensor_id;sensor_type;location;lat;lon;timestamp;temperature;humidity
69595;DHT22;56800;52.142;5.364;2023-05-21T00:00:52;16.70;58.40
69595;DHT22;56800;52.142;5.364;2023-05-21T00:03:19;16.70;58.60
69595;DHT22;56800;52.142;5.364;2023-05-21T00:05:46;16.70;58.70
69595;DHT22;56800;52.142;5.364;2023-05-21T00:08:15;16.70;58.80
69595;DHT22;56800;52.142;5.364;2023-05-21T00:10:42;16.70;58.90
69595;DHT22;56800;52.142;5.364;2023-05-21T00:13:09;16.70;59.00
69595;DHT22;56800;52.142;5.364;2023-05-21T00:15:37;16.70;59.00
69595;DHT22;56800;52.142;5.364;2023-05-21T00:18:04;16.70;59.10
69595;DHT22;56800;52.142;5.364;2023-05-21T00:20:31;16.60;59.10
69595;DHT22;56800;52.142;5.364;2023-05-21T00:22:58;16.70;59.20
69595;DHT22;56800;52.142;5.364;2023-05-21T00:25:28;16.60;59.50
69595;DHT22;56800;52.142;5.364;2023-05-21T00:27:55;16.60;59.40
69595;DHT22;56800;52.142;5.364;2023-05-21T00:30:21;16.60;59.50
69595;DHT22;56800;52.142;5.364;2023-05-21T00:32:48;16.60;59.60
69595;DHT22;56800;52.142;5.364;2023-05-21T00:35:15;16.50;59.50
69595;DHT22;56800;52.142;5.364;2023-05-21T00:37:41;16.50;59.50
69595;DHT22;56800;52.142;5.364;2023-05-21T00:40:09;16.60;59.60
69595;DHT22;56800;52.142;5.364;2023-05-21T00:42:36;16.50;59.70
69595;DHT22;56800;52.142;5.364;2023-05-21T00:45:07;16.60;59.90
69595;DHT22;56800;52.142;5.364;2023-05-21T00:47:34;16.50;59.80
69595;DHT22;56800;52.142;5.364;2023-05-21T00:50:03;16.50;59.80
69595;DHT22;56800;52.142;5.364;2023-05-21T00:52:30;16.50;60.00
69595;DHT22;56800;52.142;5.364;2023-05-21T00:54:57;16.50;60.00
69595;DHT22;56800;52.142;5.364;2023-05-21T00:57:24;16.50;60.00
69595;DHT22;56800;52.142;5.364;2023-05-21T00:59:53;16.40;60.00
69595;DHT22;56800;52.142;5.364;2023-05-21T01:02:19;16.50;60.10
69595;DHT22;56800;52.142;5.364;2023-05-21T01:04:52;16.50;60.10
69595;DHT22;56800;52.142;5.364;2023-05-21T01:07:19;16.50;60.10
69595;DHT22;56800;52.142;5.364;2023-05-21T01:09:46;16.40;60.10
69595;DHT22;56800;52.142;5.364;2023-05-21T01:12:14;16.40;60.30
69595;DHT22;56800;52.142;5.364;2023-05-21T01:14:41;16.40;60.40
69595;DHT22;56800;52.142;5.364;2023-05-21T01:17:08;16.40;60.50
69595;DHT22;56800;52.142;5.364;2023-05-21T01:19:36;16.40;60.60
69595;DHT22;56800;52.142;5.364;2023-05-21T01:22:05;16.40;60.60
69595;DHT22;56800;52.142;5.364;2023-05-21T01:24:32;16.40;60.60
69595;DHT22;56800;52.142;5.364;2023-05-21T01:27:00;16.40;60.50
69595;DHT22;56800;52.142;5.364;2023-05-21T01:29:27;16.40;60.60
69595;DHT22;56800;52.142;5.364;2023-05-21T01:32:28;16.30;60.70
69595;DHT22;56800;52.142;5.364;2023-05-21T01:35:12;16.40;61.00
69595;DHT22;56800;52.142;5.364;2023-05-21T01:37:44;16.30;60.90
69595;DHT22;56800;52.142;5.364;2023-05-21T01:40:24;16.30;60.90
69595;DHT22;56800;52.142;5.364;2023-05-21T01:42:54;16.30;61.00
69595;DHT22;56800;52.142;5.364;2023-05-21T01:45:23;16.30;61.00
69595;DHT22;56800;52.142;5.364;2023-05-21T01:47:53;16.30;61.00
69595;DHT22;56800;52.142;5.364;2023-05-21T01:50:22;16.30;61.10
69595;DHT22;56800;52.142;5.364;2023-05-21T01:52:54;16.30;61.20
69595;DHT22;56800;52.142;5.364;2023-05-21T01:55:26;16.30;61.30
69595;DHT22;56800;52.142;5.364;2023-05-21T01:57:54;16.20;61.20
69595;DHT22;56800;52.142;5.364;2023-05-21T02:00:23;16.20;61.30
69595;DHT22;56800;52.142;5.364;2023-05-21T02:02:50;16.20;61.30
69595;DHT22;56800;52.142;5.364;2023-05-21T02:05:17;16.20;61.50
69595;DHT22;56800;52.142;5.364;2023-05-21T02:07:45;16.20;61.50
69595;DHT22;56800;52.142;5.364;2023-05-21T02:10:12;16.20;61.50
69595;DHT22;56800;52.142;5.364;2023-05-21T02:12:39;16.20;61.50
69595;DHT22;56800;52.142;5.364;2023-05-21T02:15:06;16.20;61.50
69595;DHT22;56800;52.142;5.364;2023-05-21T02:17:33;16.20;61.50
69595;DHT22;56800;52.142;5.364;2023-05-21T02:20:00;16.20;61.50
69595;DHT22;56800;52.142;5.364;2023-05-21T02:22:47;16.10;61.60
69595;DHT22;56800;52.142;5.364;2023-05-21T02:25:15;16.10;61.70
69595;DHT22;56800;52.142;5.364;2023-05-21T02:27:43;16.10;61.60
69595;DHT22;56800;52.142;5.364;2023-05-21T02:30:14;16.10;61.70
69595;DHT22;56800;52.142;5.364;2023-05-21T02:32:41;16.10;61.70
69595;DHT22;56800;52.142;5.364;2023-05-21T02:35:10;16.10;61.80
69595;DHT22;56800;52.142;5.364;2023-05-21T02:37:38;16.10;61.90
69595;DHT22;56800;52.142;5.364;2023-05-21T02:40:10;16.10;62.00
69595;DHT22;56800;52.142;5.364;2023-05-21T02:42:38;16.10;62.10
69595;DHT22;56800;52.142;5.364;2023-05-21T02:45:10;16.10;62.20
69595;DHT22;56800;52.142;5.364;2023-05-21T02:47:37;16.10;62.30
69595;DHT22;56800;52.142;5.364;2023-05-21T02:50:06;16.00;62.30
69595;DHT22;56800;52.142;5.364;2023-05-21T02:52:32;16.00;62.30
69595;DHT22;56800;52.142;5.364;2023-05-21T02:54:59;16.00;62.40
69595;DHT22;56800;52.142;5.364;2023-05-21T02:57:26;16.10;62.50
69595;DHT22;56800;52.142;5.364;2023-05-21T02:59:53;16.00;62.50
69595;DHT22;56800;52.142;5.364;2023-05-21T03:02:19;16.00;62.60
69595;DHT22;56800;52.142;5.364;2023-05-21T03:04:46;16.00;62.70
69595;DHT22;56800;52.142;5.364;2023-05-21T03:07:14;16.00;62.80
69595;DHT22;56800;52.142;5.364;2023-05-21T03:09:41;16.00;62.90
69595;DHT22;56800;52.142;5.364;2023-05-21T03:12:09;16.00;63.00
69595;DHT22;56800;52.142;5.364;2023-05-21T03:14:37;16.00;63.10
69595;DHT22;56800;52.142;5.364;2023-05-21T03:17:04;15.90;63.10
69595;DHT22;56800;52.142;5.364;2023-05-21T03:19:34;15.90;63.30
69595;DHT22;56800;52.142;5.364;2023-05-21T03:22:02;15.90;63.40
69595;DHT22;56800;52.142;5.364;2023-05-21T03:24:29;15.90;63.50
69595;DHT22;56800;52.142;5.364;2023-05-21T03:26:57;15.90;63.50
69595;DHT22;56800;52.142;5.364;2023-05-21T03:29:24;15.90;63.60
69595;DHT22;56800;52.142;5.364;2023-05-21T03:31:51;15.90;63.70
69595;DHT22;56800;52.142;5.364;2023-05-21T03:34:19;15.90;63.80
69595;DHT22;56800;52.142;5.364;2023-05-21T03:36:46;15.90;63.90
69595;DHT22;56800;52.142;5.364;2023-05-21T03:39:13;15.80;63.80
69595;DHT22;56800;52.142;5.364;2023-05-21T03:41:40;15.80;63.80
69595;DHT22;56800;52.142;5.364;2023-05-21T03:44:07;15.80;63.90
69595;DHT22;56800;52.142;5.364;2023-05-21T03:46:33;15.80;64.00
69595;DHT22;56800;52.142;5.364;2023-05-21T03:49:00;15.80;64.10
69595;DHT22;56800;52.142;5.364;2023-05-21T03:51:27;15.80;64.20
69595;DHT22;56800;52.142;5.364;2023-05-21T03:53:57;15.80;64.30
69595;DHT22;56800;52.142;5.364;2023-05-21T03:56:25;15.80;64.30
69595;DHT22;56800;52.142;5.364;2023-05-21T03:58:52;15.80;64.40
69595;DHT22;56800;52.142;5.364;2023-05-21T04:01:19;15.70;64.40
69595;DHT22;56800;52.142;5.364;2023-05-21T04:03:45;15.80;64.50
69595;DHT22;56800;52.142;5.364;2023-05-21T04:06:13;15.80;64.60
69595;DHT22;56800;52.142;5.364;2023-05-21T04:08:39;15.70;64.60
69595;DHT22;56800;52.142;5.364;2023-05-21T04:11:06;15.70;64.70
69595;DHT22;56800;52.142;5.364;2023-05-21T04:13:33;15.70;64.70
69595;DHT22;56800;52.142;5.364;2023-05-21T04:15:59;15.70;64.80
69595;DHT22;56800;52.142;5.364;2023-05-21T04:18:26;15.70;64.90
69595;DHT22;56800;52.142;5.364;2023-05-21T04:20:53;15.70;64.90
69595;DHT22;56800;52.142;5.364;2023-05-21T04:23:20;15.70;65.00
69595;DHT22;56800;52.142;5.364;2023-05-21T04:25:49;15.60;64.90
69595;DHT22;56800;52.142;5.364;2023-05-21T04:28:16;15.60;65.00
69595;DHT22;56800;52.142;5.364;2023-05-21T04:30:46;15.60;65.10
69595;DHT22;56800;52.142;5.364;2023-05-21T04:33:13;15.60;65.10
69595;DHT22;56800;52.142;5.364;2023-05-21T04:35:45;15.60;65.20
69595;DHT22;56800;52.142;5.364;2023-05-21T04:38:15;15.60;65.20
69595;DHT22;56800;52.142;5.364;2023-05-21T04:40:49;15.60;66.00
69595;DHT22;56800;52.142;5.364;2023-05-21T04:43:19;15.60;65.30
69595;DHT22;56800;52.142;5.364;2023-05-21T04:45:53;15.60;65.30
69595;DHT22;56800;52.142;5.364;2023-05-21T04:48:22;15.60;65.30
69595;DHT22;56800;52.142;5.364;2023-05-21T04:50:50;15.60;65.40
69595;DHT22;56800;52.142;5.364;2023-05-21T04:53:18;15.60;65.40
69595;DHT22;56800;52.142;5.364;2023-05-21T04:55:46;15.60;65.50
69595;DHT22;56800;52.142;5.364;2023-05-21T04:58:12;15.60;65.50
69595;DHT22;56800;52.142;5.364;2023-05-21T05:00:40;15.60;65.60
69595;DHT22;56800;52.142;5.364;2023-05-21T05:03:07;15.60;65.60
69595;DHT22;56800;52.142;5.364;2023-05-21T05:05:34;15.60;65.70
69595;DHT22;56800;52.142;5.364;2023-05-21T05:08:01;15.60;65.70
69595;DHT22;56800;52.142;5.364;2023-05-21T05:10:29;15.60;65.80
69595;DHT22;56800;52.142;5.364;2023-05-21T05:12:56;15.60;65.90
69595;DHT22;56800;52.142;5.364;2023-05-21T05:15:22;15.60;65.90
69595;DHT22;56800;52.142;5.364;2023-05-21T05:17:49;15.70;66.00
69595;DHT22;56800;52.142;5.364;2023-05-21T05:20:16;15.70;66.10
69595;DHT22;56800;52.142;5.364;2023-05-21T05:22:43;15.70;66.00
69595;DHT22;56800;52.142;5.364;2023-05-21T05:25:09;15.70;66.00
69595;DHT22;56800;52.142;5.364;2023-05-21T05:27:36;15.70;66.10
69595;DHT22;56800;52.142;5.364;2023-05-21T05:30:04;15.70;66.10
69595;DHT22;56800;52.142;5.364;2023-05-21T05:32:32;15.70;66.20
69595;DHT22;56800;52.142;5.364;2023-05-21T05:34:58;15.70;66.20
69595;DHT22;56800;52.142;5.364;2023-05-21T05:37:28;15.70;66.20
69595;DHT22;56800;52.142;5.364;2023-05-21T05:39:54;15.70;66.30
69595;DHT22;56800;52.142;5.364;2023-05-21T05:42:21;15.80;66.30
69595;DHT22;56800;52.142;5.364;2023-05-21T05:44:48;15.70;66.30
69595;DHT22;56800;52.142;5.364;2023-05-21T05:47:15;15.70;66.40
69595;DHT22;56800;52.142;5.364;2023-05-21T05:49:43;15.70;66.40
69595;DHT22;56800;52.142;5.364;2023-05-21T05:52:09;15.80;66.50
69595;DHT22;56800;52.142;5.364;2023-05-21T05:54:36;15.80;66.50
69595;DHT22;56800;52.142;5.364;2023-05-21T05:57:03;15.80;66.60
69595;DHT22;56800;52.142;5.364;2023-05-21T05:59:30;15.80;66.60
69595;DHT22;56800;52.142;5.364;2023-05-21T06:01:59;15.80;66.70
69595;DHT22;56800;52.142;5.364;2023-05-21T06:04:26;15.80;66.80
69595;DHT22;56800;52.142;5.364;2023-05-21T06:06:55;15.80;66.80
69595;DHT22;56800;52.142;5.364;2023-05-21T06:09:23;15.90;66.90
69595;DHT22;56800;52.142;5.364;2023-05-21T06:11:50;15.90;66.80
69595;DHT22;56800;52.142;5.364;2023-05-21T06:14:17;15.90;66.70
69595;DHT22;56800;52.142;5.364;2023-05-21T06:16:43;15.90;66.70
69595;DHT22;56800;52.142;5.364;2023-05-21T06:19:10;16.00;66.80
69595;DHT22;56800;52.142;5.364;2023-05-21T06:21:37;16.00;66.80
69595;DHT22;56800;52.142;5.364;2023-05-21T06:24:04;16.10;66.70
69595;DHT22;56800;52.142;5.364;2023-05-21T06:26:31;16.10;66.70
69595;DHT22;56800;52.142;5.364;2023-05-21T06:28:57;16.10;66.60
69595;DHT22;56800;52.142;5.364;2023-05-21T06:31:24;16.20;66.50
69595;DHT22;56800;52.142;5.364;2023-05-21T06:33:51;16.30;66.50
69595;DHT22;56800;52.142;5.364;2023-05-21T06:36:17;16.30;66.50
69595;DHT22;56800;52.142;5.364;2023-05-21T06:38:44;16.30;66.50
69595;DHT22;56800;52.142;5.364;2023-05-21T06:41:12;16.40;66.50
69595;DHT22;56800;52.142;5.364;2023-05-21T06:43:38;16.50;66.40
69595;DHT22;56800;52.142;5.364;2023-05-21T06:46:05;16.60;66.20
69595;DHT22;56800;52.142;5.364;2023-05-21T06:48:32;16.60;66.20
69595;DHT22;56800;52.142;5.364;2023-05-21T06:50:59;16.70;66.10
69595;DHT22;56800;52.142;5.364;2023-05-21T06:53:26;16.70;66.00
69595;DHT22;56800;52.142;5.364;2023-05-21T06:55:53;16.80;66.00
69595;DHT22;56800;52.142;5.364;2023-05-21T06:58:20;16.80;65.80
69595;DHT22;56800;52.142;5.364;2023-05-21T07:00:47;16.80;65.70
69595;DHT22;56800;52.142;5.364;2023-05-21T07:03:14;16.90;65.70
69595;DHT22;56800;52.142;5.364;2023-05-21T07:05:41;16.90;65.70
69595;DHT22;56800;52.142;5.364;2023-05-21T07:08:08;16.90;65.60
69595;DHT22;56800;52.142;5.364;2023-05-21T07:10:37;16.90;65.60
69595;DHT22;56800;52.142;5.364;2023-05-21T07:13:04;16.90;65.60
69595;DHT22;56800;52.142;5.364;2023-05-21T07:15:30;17.00;65.60
69595;DHT22;56800;52.142;5.364;2023-05-21T07:17:57;17.10;65.60
69595;DHT22;56800;52.142;5.364;2023-05-21T07:20:24;17.10;65.50
69595;DHT22;56800;52.142;5.364;2023-05-21T07:22:51;17.20;65.50
69595;DHT22;56800;52.142;5.364;2023-05-21T07:25:17;17.30;65.50
69595;DHT22;56800;52.142;5.364;2023-05-21T07:27:44;17.30;65.40
69595;DHT22;56800;52.142;5.364;2023-05-21T07:30:11;17.40;65.30
69595;DHT22;56800;52.142;5.364;2023-05-21T07:32:38;17.40;65.10
69595;DHT22;56800;52.142;5.364;2023-05-21T07:35:05;17.50;65.10
69595;DHT22;56800;52.142;5.364;2023-05-21T07:37:32;17.50;65.00
69595;DHT22;56800;52.142;5.364;2023-05-21T07:39:58;17.60;65.00
69595;DHT22;56800;52.142;5.364;2023-05-21T07:42:26;17.60;64.70
69595;DHT22;56800;52.142;5.364;2023-05-21T07:44:52;17.60;64.70
69595;DHT22;56800;52.142;5.364;2023-05-21T07:47:19;17.70;64.80
69595;DHT22;56800;52.142;5.364;2023-05-21T07:49:46;17.80;64.70
69595;DHT22;56800;52.142;5.364;2023-05-21T07:52:12;17.80;64.50
69595;DHT22;56800;52.142;5.364;2023-05-21T07:54:39;17.80;64.30
69595;DHT22;56800;52.142;5.364;2023-05-21T07:57:06;17.80;64.30
69595;DHT22;56800;52.142;5.364;2023-05-21T07:59:32;17.90;64.20
69595;DHT22;56800;52.142;5.364;2023-05-21T08:01:59;17.90;64.20
69595;DHT22;56800;52.142;5.364;2023-05-21T08:04:26;17.90;64.10
69595;DHT22;56800;52.142;5.364;2023-05-21T08:06:53;18.00;64.20
69595;DHT22;56800;52.142;5.364;2023-05-21T08:09:19;18.10;64.00
69595;DHT22;56800;52.142;5.364;2023-05-21T08:11:46;18.10;63.90
69595;DHT22;56800;52.142;5.364;2023-05-21T08:14:13;18.20;64.00
69595;DHT22;56800;52.142;5.364;2023-05-21T08:16:39;18.30;63.70
69595;DHT22;56800;52.142;5.364;2023-05-21T08:19:06;18.40;63.50
69595;DHT22;56800;52.142;5.364;2023-05-21T08:21:33;18.40;63.40
69595;DHT22;56800;52.142;5.364;2023-05-21T08:24:00;18.50;63.40
69595;DHT22;56800;52.142;5.364;2023-05-21T08:26:28;18.50;63.30
69595;DHT22;56800;52.142;5.364;2023-05-21T08:28:54;18.70;63.30
69595;DHT22;56800;52.142;5.364;2023-05-21T08:31:21;18.70;63.10
69595;DHT22;56800;52.142;5.364;2023-05-21T08:33:52;18.80;63.00
69595;DHT22;56800;52.142;5.364;2023-05-21T08:36:19;18.90;62.90
69595;DHT22;56800;52.142;5.364;2023-05-21T08:38:46;18.90;62.70
69595;DHT22;56800;52.142;5.364;2023-05-21T08:41:13;18.90;62.90
69595;DHT22;56800;52.142;5.364;2023-05-21T08:43:42;19.00;62.80
69595;DHT22;56800;52.142;5.364;2023-05-21T08:46:14;19.10;62.90
69595;DHT22;56800;52.142;5.364;2023-05-21T08:48:42;19.20;62.70
69595;DHT22;56800;52.142;5.364;2023-05-21T08:51:09;19.20;62.50
69595;DHT22;56800;52.142;5.364;2023-05-21T08:53:36;19.30;62.40
69595;DHT22;56800;52.142;5.364;2023-05-21T08:56:04;19.40;62.50
69595;DHT22;56800;52.142;5.364;2023-05-21T08:58:31;19.50;62.00
69595;DHT22;56800;52.142;5.364;2023-05-21T09:00:59;19.60;61.70
69595;DHT22;56800;52.142;5.364;2023-05-21T09:03:26;19.70;61.50
69595;DHT22;56800;52.142;5.364;2023-05-21T09:05:55;19.70;61.40
69595;DHT22;56800;52.142;5.364;2023-05-21T09:08:28;19.80;61.40
69595;DHT22;56800;52.142;5.364;2023-05-21T09:10:56;19.90;61.30
69595;DHT22;56800;52.142;5.364;2023-05-21T09:13:24;20.00;61.00
69595;DHT22;56800;52.142;5.364;2023-05-21T09:15:52;20.00;60.50
69595;DHT22;56800;52.142;5.364;2023-05-21T09:18:18;20.00;60.60
69595;DHT22;56800;52.142;5.364;2023-05-21T09:20:45;20.10;60.50
69595;DHT22;56800;52.142;5.364;2023-05-21T09:23:16;20.20;60.50
69595;DHT22;56800;52.142;5.364;2023-05-21T09:25:47;20.30;60.20
69595;DHT22;56800;52.142;5.364;2023-05-21T09:28:15;20.30;60.00
69595;DHT22;56800;52.142;5.364;2023-05-21T09:30:51;20.40;59.80
69595;DHT22;56800;52.142;5.364;2023-05-21T09:33:26;20.40;59.50
69595;DHT22;56800;52.142;5.364;2023-05-21T09:35:54;20.40;59.20
69595;DHT22;56800;52.142;5.364;2023-05-21T09:38:22;20.50;59.30
69595;DHT22;56800;52.142;5.364;2023-05-21T09:40:49;20.50;59.20
69595;DHT22;56800;52.142;5.364;2023-05-21T09:43:16;20.50;59.10
69595;DHT22;56800;52.142;5.364;2023-05-21T09:45:53;20.50;59.20
69595;DHT22;56800;52.142;5.364;2023-05-21T09:48:41;20.60;59.40
69595;DHT22;56800;52.142;5.364;2023-05-21T09:53:49;20.70;59.10
69595;DHT22;56800;52.142;5.364;2023-05-21T09:56:22;20.80;58.90
69595;DHT22;56800;52.142;5.364;2023-05-21T09:58:57;20.90;58.80
69595;DHT22;56800;52.142;5.364;2023-05-21T10:01:26;21.00;58.80
69595;DHT22;56800;52.142;5.364;2023-05-21T10:03:54;21.20;58.70
69595;DHT22;56800;52.142;5.364;2023-05-21T10:06:27;21.40;58.20
69595;DHT22;56800;52.142;5.364;2023-05-21T10:08:56;21.50;58.00
69595;DHT22;56800;52.142;5.364;2023-05-21T10:11:26;21.70;57.60
69595;DHT22;56800;52.142;5.364;2023-05-21T10:14:06;21.70;57.30
69595;DHT22;56800;52.142;5.364;2023-05-21T10:16:35;21.90;56.90
69595;DHT22;56800;52.142;5.364;2023-05-21T10:19:02;22.00;56.90
69595;DHT22;56800;52.142;5.364;2023-05-21T10:21:31;22.10;56.30
69595;DHT22;56800;52.142;5.364;2023-05-21T10:24:00;22.20;55.70
69595;DHT22;56800;52.142;5.364;2023-05-21T10:26:27;22.30;55.50
69595;DHT22;56800;52.142;5.364;2023-05-21T10:28:56;22.40;55.50
69595;DHT22;56800;52.142;5.364;2023-05-21T10:31:24;22.50;55.30
69595;DHT22;56800;52.142;5.364;2023-05-21T10:33:55;22.60;55.20
69595;DHT22;56800;52.142;5.364;2023-05-21T10:36:23;22.80;55.00
69595;DHT22;56800;52.142;5.364;2023-05-21T10:38:51;22.90;54.30
69595;DHT22;56800;52.142;5.364;2023-05-21T10:41:19;23.00;53.80
69595;DHT22;56800;52.142;5.364;2023-05-21T10:43:55;23.10;53.70
69595;DHT22;56800;52.142;5.364;2023-05-21T10:46:54;23.00;53.50
69595;DHT22;56800;52.142;5.364;2023-05-21T10:50:45;23.00;53.90
69595;DHT22;56800;52.142;5.364;2023-05-21T10:55:48;23.20;53.60
69595;DHT22;56800;52.142;5.364;2023-05-21T10:58:59;23.30;53.10
69595;DHT22;56800;52.142;5.364;2023-05-21T11:01:32;23.30;53.20
69595;DHT22;56800;52.142;5.364;2023-05-21T11:04:02;23.40;53.00
69595;DHT22;56800;52.142;5.364;2023-05-21T11:06:29;23.40;52.60
69595;DHT22;56800;52.142;5.364;2023-05-21T11:09:00;23.40;52.80
69595;DHT22;56800;52.142;5.364;2023-05-21T11:14:38;23.30;52.60
69595;DHT22;56800;52.142;5.364;2023-05-21T11:17:11;23.30;52.80
69595;DHT22;56800;52.142;5.364;2023-05-21T11:19:41;23.30;53.10
69595;DHT22;56800;52.142;5.364;2023-05-21T11:24:45;23.50;53.10
69595;DHT22;56800;52.142;5.364;2023-05-21T11:27:35;23.50;52.80
69595;DHT22;56800;52.142;5.364;2023-05-21T11:30:25;23.60;52.40
69595;DHT22;56800;52.142;5.364;2023-05-21T11:35:56;23.80;52.00
69595;DHT22;56800;52.142;5.364;2023-05-21T11:38:27;23.90;52.20
69595;DHT22;56800;52.142;5.364;2023-05-21T11:41:02;24.00;52.20
69595;DHT22;56800;52.142;5.364;2023-05-21T11:43:29;24.10;51.70
69595;DHT22;56800;52.142;5.364;2023-05-21T11:45:56;24.10;51.40
69595;DHT22;56800;52.142;5.364;2023-05-21T11:48:26;24.00;51.20
69595;DHT22;56800;52.142;5.364;2023-05-21T11:50:56;24.00;51.30
69595;DHT22;56800;52.142;5.364;2023-05-21T11:53:23;24.00;51.80
69595;DHT22;56800;52.142;5.364;2023-05-21T11:55:50;24.10;52.00
69595;DHT22;56800;52.142;5.364;2023-05-21T11:58:22;24.20;51.60
69595;DHT22;56800;52.142;5.364;2023-05-21T12:00:50;24.20;51.60
69595;DHT22;56800;52.142;5.364;2023-05-21T12:03:16;24.30;51.40
69595;DHT22;56800;52.142;5.364;2023-05-21T12:05:47;24.30;51.40
69595;DHT22;56800;52.142;5.364;2023-05-21T12:08:22;24.30;51.00
69595;DHT22;56800;52.142;5.364;2023-05-21T12:10:58;24.30;51.00
69595;DHT22;56800;52.142;5.364;2023-05-21T12:13:25;24.40;51.30
69595;DHT22;56800;52.142;5.364;2023-05-21T12:15:53;24.40;51.20
69595;DHT22;56800;52.142;5.364;2023-05-21T12:18:20;24.40;50.90
69595;DHT22;56800;52.142;5.364;2023-05-21T12:20:47;24.40;51.00
69595;DHT22;56800;52.142;5.364;2023-05-21T12:23:22;24.30;50.90
69595;DHT22;56800;52.142;5.364;2023-05-21T12:25:50;24.30;51.10
69595;DHT22;56800;52.142;5.364;2023-05-21T12:28:19;24.40;51.30
69595;DHT22;56800;52.142;5.364;2023-05-21T12:30:46;24.40;51.10
69595;DHT22;56800;52.142;5.364;2023-05-21T12:33:13;24.50;51.30
69595;DHT22;56800;52.142;5.364;2023-05-21T12:35:40;24.60;51.10
69595;DHT22;56800;52.142;5.364;2023-05-21T12:38:07;24.60;51.30
69595;DHT22;56800;52.142;5.364;2023-05-21T12:40:36;24.60;51.10
69595;DHT22;56800;52.142;5.364;2023-05-21T12:43:06;24.70;51.20
69595;DHT22;56800;52.142;5.364;2023-05-21T12:45:34;24.70;51.40
69595;DHT22;56800;52.142;5.364;2023-05-21T12:48:02;24.70;50.90
69595;DHT22;56800;52.142;5.364;2023-05-21T12:50:30;24.80;50.80
69595;DHT22;56800;52.142;5.364;2023-05-21T12:52:58;24.90;50.60
69595;DHT22;56800;52.142;5.364;2023-05-21T12:55:24;24.90;50.60
69595;DHT22;56800;52.142;5.364;2023-05-21T12:58:00;24.80;50.60
69595;DHT22;56800;52.142;5.364;2023-05-21T13:00:28;24.80;50.70
69595;DHT22;56800;52.142;5.364;2023-05-21T13:02:55;24.80;50.70
69595;DHT22;56800;52.142;5.364;2023-05-21T13:05:25;24.70;50.80
69595;DHT22;56800;52.142;5.364;2023-05-21T13:07:52;24.80;51.30
69595;DHT22;56800;52.142;5.364;2023-05-21T13:10:18;24.90;51.40
69595;DHT22;56800;52.142;5.364;2023-05-21T13:12:45;24.90;51.20
69595;DHT22;56800;52.142;5.364;2023-05-21T13:15:13;24.90;51.20
69595;DHT22;56800;52.142;5.364;2023-05-21T13:17:39;25.00;51.10
69595;DHT22;56800;52.142;5.364;2023-05-21T13:20:10;25.00;51.20
69595;DHT22;56800;52.142;5.364;2023-05-21T13:22:45;25.00;51.20
69595;DHT22;56800;52.142;5.364;2023-05-21T13:25:17;25.10;51.20
69595;DHT22;56800;52.142;5.364;2023-05-21T13:27:48;25.20;51.30
69595;DHT22;56800;52.142;5.364;2023-05-21T13:30:16;25.20;51.20
69595;DHT22;56800;52.142;5.364;2023-05-21T13:32:43;25.20;50.70
69595;DHT22;56800;52.142;5.364;2023-05-21T13:35:10;25.30;51.10
69595;DHT22;56800;52.142;5.364;2023-05-21T13:37:39;25.30;51.30
69595;DHT22;56800;52.142;5.364;2023-05-21T13:40:07;25.50;51.20
69595;DHT22;56800;52.142;5.364;2023-05-21T13:42:37;25.60;50.80
69595;DHT22;56800;52.142;5.364;2023-05-21T13:45:05;25.80;50.70
69595;DHT22;56800;52.142;5.364;2023-05-21T13:47:32;25.90;50.70
69595;DHT22;56800;52.142;5.364;2023-05-21T13:49:59;26.10;50.50
69595;DHT22;56800;52.142;5.364;2023-05-21T13:52:26;26.30;50.10
69595;DHT22;56800;52.142;5.364;2023-05-21T13:54:52;26.40;49.40
69595;DHT22;56800;52.142;5.364;2023-05-21T13:57:19;26.40;49.50
69595;DHT22;56800;52.142;5.364;2023-05-21T13:59:46;26.50;49.70
69595;DHT22;56800;52.142;5.364;2023-05-21T14:02:13;26.70;49.50
69595;DHT22;56800;52.142;5.364;2023-05-21T14:04:40;26.80;49.40
69595;DHT22;56800;52.142;5.364;2023-05-21T14:07:07;26.90;48.80
69595;DHT22;56800;52.142;5.364;2023-05-21T14:09:33;27.00;48.80
69595;DHT22;56800;52.142;5.364;2023-05-21T14:12:01;27.10;48.50
69595;DHT22;56800;52.142;5.364;2023-05-21T14:14:32;27.20;48.30
69595;DHT22;56800;52.142;5.364;2023-05-21T14:16:58;27.20;48.00
69595;DHT22;56800;52.142;5.364;2023-05-21T14:19:25;27.20;48.00
69595;DHT22;56800;52.142;5.364;2023-05-21T14:21:52;27.20;47.70
69595;DHT22;56800;52.142;5.364;2023-05-21T14:24:19;27.20;47.80
69595;DHT22;56800;52.142;5.364;2023-05-21T14:26:46;27.20;47.70
69595;DHT22;56800;52.142;5.364;2023-05-21T14:29:13;27.30;47.80
69595;DHT22;56800;52.142;5.364;2023-05-21T14:31:40;27.30;47.60
69595;DHT22;56800;52.142;5.364;2023-05-21T14:34:07;27.20;47.10
69595;DHT22;56800;52.142;5.364;2023-05-21T14:36:34;27.20;47.10
69595;DHT22;56800;52.142;5.364;2023-05-21T14:39:02;27.10;47.00
69595;DHT22;56800;52.142;5.364;2023-05-21T14:41:28;27.10;47.20
69595;DHT22;56800;52.142;5.364;2023-05-21T14:43:55;27.20;47.20
69595;DHT22;56800;52.142;5.364;2023-05-21T14:46:22;27.20;46.60
69595;DHT22;56800;52.142;5.364;2023-05-21T14:48:48;27.20;46.90
69595;DHT22;56800;52.142;5.364;2023-05-21T14:51:15;27.20;46.80
69595;DHT22;56800;52.142;5.364;2023-05-21T14:53:42;27.00;46.50
69595;DHT22;56800;52.142;5.364;2023-05-21T14:56:09;26.90;47.10
69595;DHT22;56800;52.142;5.364;2023-05-21T14:58:35;26.90;47.30
69595;DHT22;56800;52.142;5.364;2023-05-21T15:01:02;26.90;47.30
69595;DHT22;56800;52.142;5.364;2023-05-21T15:03:32;26.90;47.30
69595;DHT22;56800;52.142;5.364;2023-05-21T15:05:59;26.90;47.30
69595;DHT22;56800;52.142;5.364;2023-05-21T15:08:26;26.80;47.20
69595;DHT22;56800;52.142;5.364;2023-05-21T15:10:52;26.70;47.20
69595;DHT22;56800;52.142;5.364;2023-05-21T15:13:19;26.50;47.20
69595;DHT22;56800;52.142;5.364;2023-05-21T15:15:47;26.40;47.60
69595;DHT22;56800;52.142;5.364;2023-05-21T15:18:14;26.30;47.80
69595;DHT22;56800;52.142;5.364;2023-05-21T15:20:41;26.30;48.20
69595;DHT22;56800;52.142;5.364;2023-05-21T15:23:08;26.30;48.20
69595;DHT22;56800;52.142;5.364;2023-05-21T15:25:43;26.30;48.20
69595;DHT22;56800;52.142;5.364;2023-05-21T15:28:10;26.20;48.40
69595;DHT22;56800;52.142;5.364;2023-05-21T15:30:38;26.20;48.20
69595;DHT22;56800;52.142;5.364;2023-05-21T15:33:04;26.20;48.20
69595;DHT22;56800;52.142;5.364;2023-05-21T15:35:33;26.10;48.00
69595;DHT22;56800;52.142;5.364;2023-05-21T15:38:01;26.00;48.00
69595;DHT22;56800;52.142;5.364;2023-05-21T15:40:28;26.00;48.10
69595;DHT22;56800;52.142;5.364;2023-05-21T15:42:54;25.90;48.20
69595;DHT22;56800;52.142;5.364;2023-05-21T15:45:23;25.80;48.40
69595;DHT22;56800;52.142;5.364;2023-05-21T15:47:50;25.80;48.70
69595;DHT22;56800;52.142;5.364;2023-05-21T15:50:16;25.80;48.70
69595;DHT22;56800;52.142;5.364;2023-05-21T15:52:43;25.80;48.50